Overview Statistics Trail Chart Weather Telemetry Raw packets
 

This is the latest recevied weather packets stored in our database for station/object F4ELU-13. If no packets are shown the sender has not sent any weather packets the latest 10 day(s).

<< 1 2 3 4 5 6 7 >>
Time Temp. Humidity Pressure Rain* Wind** Luminosity Snow
1788562803 20° C 61% 1020.3 hPa 0 mm - - -
1788562443 20° C 61% 1020.4 hPa 0 mm - - -
1788561903 19.44° C 63% 1020.2 hPa 0 mm - - -
1788561363 19.44° C 65% 1020.1 hPa 0 mm - - -
1788560823 19.44° C 64% 1020.1 hPa 0 mm - - -
1788560283 18.89° C 67% 1020 hPa 0 mm - - -
1788559743 19.44° C 66% 1019.9 hPa 0 mm - - -
1788559203 20.56° C 61% 1019.8 hPa 0 mm - - -
1788558843 21.11° C 59% 1019.9 hPa 0 mm - - -
1788558303 21.11° C 57% 1019.9 hPa 0 mm - - -
1788557763 22.22° C 54% 1019.7 hPa 0 mm - - -
1788557223 22.22° C 55% 1019.7 hPa 0 mm - - -
1788556683 20° C 61% 1019.4 hPa 0 mm - - -
1788556143 21.11° C 62% 1019.4 hPa 0 mm - - -
1788555603 21.67° C 57% 1019.5 hPa 0 mm - - -
1788555243 21.67° C 57% 1019.4 hPa 0 mm - - -
1788554703 22.22° C 55% 1019.5 hPa 0 mm - - -
1788554163 23.33° C 51% 1019.5 hPa 0 mm - - -
1788553623 23.89° C 50% 1019.3 hPa 0 mm - - -
1788553083 23.89° C 50% 1019.4 hPa 0 mm - - -
1788552543 23.89° C 50% 1019.3 hPa 0 mm - - -
1788552003 23.89° C 50% 1019.1 hPa 0 mm - - -
1788551643 24.44° C 51% 1019.1 hPa 0 mm - - -
1788551103 24.44° C 50% 1018.9 hPa 0 mm - - -
1788550563 25° C 49% 1018.7 hPa 0 mm - - -

* Rain latest hour (hover to see other rain measurements)
** Current wind speed in m/s (hover to see current wind gust speed)